Time;durP1;ratioP1;P1;durP2;ratioP2;P2;SDS_P1;SDS_P2;PMS_P1;PMS_P2;Temp;Humidity;BMP_temperature;BMP_pressure;BME280_temperature;BME280_humidity;BME280_pressure;Samples;Min_cycle;Max_cycle;Signal;HPM_P1;HPM_P2
2022/10/01 00:01:10;;;;;;;11.07;9.30;;;8.10;99.90;;;;;;4402658;27;9999734;-77
2022/10/01 00:03:36;;;;;;;17.45;9.50;;;8.20;99.90;;;;;;5112921;27;20054;-76
2022/10/01 00:06:02;;;;;;;14.77;9.55;;;8.20;99.90;;;;;;5116117;27;20039;-77
2022/10/01 00:08:28;;;;;;;12.65;9.63;;;8.20;99.90;;;;;;5127411;27;20163;-76
2022/10/01 00:10:55;;;;;;;22.05;10.05;;;8.20;99.90;;;;;;5123053;27;20079;-76
2022/10/01 00:13:21;;;;;;;18.75;9.88;;;8.30;99.90;;;;;;5114677;27;20084;-77
2022/10/01 00:15:47;;;;;;;12.15;9.02;;;8.30;99.90;;;;;;5110552;27;20486;-77
2022/10/01 00:18:13;;;;;;;16.42;9.02;;;8.30;99.90;;;;;;5120790;27;20024;-76
2022/10/01 00:20:42;;;;;;;12.30;9.30;;;8.30;99.90;;;;;;5126316;27;20023;-76
2022/10/01 00:23:08;;;;;;;16.42;9.70;;;8.40;99.90;;;;;;5121560;27;20058;-76
2022/10/01 00:25:34;;;;;;;15.68;9.75;;;8.40;99.90;;;;;;5127455;27;20031;-76
2022/10/01 00:28:00;;;;;;;15.95;9.43;;;8.40;99.90;;;;;;5121949;27;20429;-76
2022/10/01 00:30:25;;;;;;;15.90;9.55;;;8.40;99.90;;;;;;5124447;27;20391;-76
2022/10/01 00:32:54;;;;;;;12.00;9.40;;;8.40;99.90;;;;;;5123081;27;20486;-76
2022/10/01 00:35:21;;;;;;;13.95;9.75;;;8.40;99.90;;;;;;5116496;27;20029;-76
2022/10/01 00:37:49;;;;;;;15.07;9.80;;;8.40;99.90;;;;;;5122390;27;20098;-76
2022/10/01 00:40:16;;;;;;;13.30;9.57;;;8.40;99.90;;;;;;5119631;27;20031;-76
2022/10/01 00:42:42;;;;;;;13.23;9.50;;;8.40;99.90;;;;;;5126941;27;20042;-76
2022/10/01 00:45:11;;;;;;;16.35;10.60;;;8.40;99.90;;;;;;5128481;27;20475;-76
2022/10/01 00:47:53;;;;;;;14.27;9.70;;;8.40;99.90;;;;;;5112908;27;20594;-76
2022/10/01 00:50:31;;;;;;;18.35;10.32;;;8.40;99.90;;;;;;5115896;27;20027;-76
2022/10/01 00:53:03;;;;;;;15.63;10.20;;;8.40;99.90;;;;;;5116539;27;20070;-76
2022/10/01 00:55:35;;;;;;;11.95;9.05;;;8.40;99.90;;;;;;5117377;27;20382;-77
2022/10/01 00:58:01;;;;;;;12.80;9.30;;;8.40;99.90;;;;;;5124189;27;20539;-76
2022/10/01 01:00:27;;;;;;;15.43;9.82;;;8.40;99.90;;;;;;5112291;27;20031;-77
2022/10/01 01:02:53;;;;;;;16.55;10.13;;;8.40;99.90;;;;;;5112283;27;20531;-76
2022/10/01 01:05:19;;;;;;;13.13;9.98;;;8.30;99.90;;;;;;5127827;27;20019;-77
2022/10/01 01:07:49;;;;;;;17.02;10.18;;;8.30;99.90;;;;;;5121357;27;20025;-76
2022/10/01 01:10:18;;;;;;;11.57;9.23;;;8.30;99.90;;;;;;5118681;27;20501;-77
2022/10/01 01:13:25;;;;;;;15.50;10.48;;;8.40;99.90;;;;;;5109616;27;20269;-77
2022/10/01 01:16:05;;;;;;;16.65;10.10;;;8.40;99.90;;;;;;5111563;27;20050;-77
2022/10/01 01:18:39;;;;;;;12.20;9.50;;;8.40;99.90;;;;;;5105034;28;20551;-76
2022/10/01 01:21:11;;;;;;;14.57;9.38;;;8.40;99.90;;;;;;5109313;28;20141;-77
2022/10/01 01:24:05;;;;;;;15.60;9.07;;;8.40;99.90;;;;;;5113264;28;20387;-77
2022/10/01 01:26:58;;;;;;;15.00;10.13;;;8.40;99.90;;;;;;5112910;28;20023;-77
2022/10/01 01:29:52;;;;;;;14.95;10.38;;;8.30;99.90;;;;;;5117256;27;20022;-76
2022/10/01 01:32:26;;;;;;;15.85;9.43;;;8.30;99.90;;;;;;5058827;27;20172;-77
2022/10/01 01:34:54;;;;;;;13.02;9.13;;;8.30;99.90;;;;;;5117514;27;20028;-76
2022/10/01 01:37:25;;;;;;;11.05;8.65;;;8.40;99.90;;;;;;5107679;27;20332;-76
2022/10/01 01:39:54;;;;;;;16.20;9.52;;;8.30;99.90;;;;;;5116980;27;20038;-77
2022/10/01 01:42:26;;;;;;;12.45;9.25;;;8.40;99.90;;;;;;5114568;27;20028;-77
2022/10/01 01:44:56;;;;;;;13.98;8.65;;;8.40;99.90;;;;;;5122963;27;20072;-77
2022/10/01 01:47:28;;;;;;;13.13;8.77;;;8.40;99.90;;;;;;5127387;27;20117;-76
2022/10/01 01:49:54;;;;;;;11.45;8.23;;;8.50;99.90;;;;;;5114791;27;20019;-76
2022/10/01 01:52:20;;;;;;;12.77;8.93;;;8.50;99.90;;;;;;5110588;27;20031;-76
2022/10/01 01:54:48;;;;;;;12.50;8.35;;;8.50;99.90;;;;;;5115568;27;20108;-76
2022/10/01 01:57:17;;;;;;;14.38;8.13;;;8.50;99.90;;;;;;5118637;27;20199;-76
2022/10/01 01:59:43;;;;;;;12.18;8.43;;;8.50;99.90;;;;;;5125666;27;20024;-76
2022/10/01 02:02:13;;;;;;;10.38;8.18;;;8.50;99.90;;;;;;5119484;27;20110;-76
2022/10/01 02:04:47;;;;;;;9.93;7.70;;;8.50;99.90;;;;;;5125978;27;20011;-76
2022/10/01 02:07:22;;;;;;;12.55;8.32;;;8.60;99.90;;;;;;5134745;27;20029;-76
2022/10/01 02:10:28;;;;;;;11.18;8.35;;;8.60;99.90;;;;;;5119655;27;20018;-77
2022/10/01 02:13:09;;;;;;;15.98;8.35;;;8.60;99.90;;;;;;5129402;27;20023;-77
2022/10/01 02:16:03;;;;;;;13.93;8.20;;;8.60;99.90;;;;;;5116522;27;20118;-76
2022/10/01 02:18:41;;;;;;;11.68;8.23;;;8.70;99.90;;;;;;5134754;27;20114;-77
2022/10/01 02:21:14;;;;;;;14.10;8.10;;;8.70;99.90;;;;;;5118258;27;20031;-76
2022/10/01 02:23:47;;;;;;;11.85;8.38;;;8.70;99.90;;;;;;5137985;27;20246;-76
2022/10/01 02:26:17;;;;;;;10.98;7.95;;;8.70;99.90;;;;;;5125377;27;20055;-77
2022/10/01 02:28:45;;;;;;;11.80;7.50;;;8.70;99.90;;;;;;5126481;27;20537;-77
2022/10/01 02:31:16;;;;;;;11.73;7.47;;;8.70;99.90;;;;;;5121397;27;20039;-76
2022/10/01 02:33:44;;;;;;;9.73;7.35;;;8.70;99.90;;;;;;5114941;27;20019;-76
2022/10/01 02:36:12;;;;;;;14.13;7.53;;;8.70;99.90;;;;;;5128127;27;20027;-77
2022/10/01 02:38:40;;;;;;;10.02;6.97;;;8.80;99.90;;;;;;5123278;27;20146;-76
2022/10/01 02:41:10;;;;;;;9.40;7.07;;;8.80;99.90;;;;;;5131943;27;20037;-76
2022/10/01 02:43:43;;;;;;;11.70;6.35;;;8.80;99.90;;;;;;5118407;27;20258;-76
2022/10/01 02:46:15;;;;;;;;;;;8.90;99.90;;;;;;5119846;27;20079;-77
2022/10/01 02:48:40;;;;;;;12.18;6.50;;;8.90;99.90;;;;;;5109346;27;20586;-77
2022/10/01 02:51:30;;;;;;;9.73;6.53;;;9.00;99.90;;;;;;5110842;27;20035;-76
2022/10/01 02:54:05;;;;;;;8.13;6.20;;;9.00;99.90;;;;;;5109988;27;20539;-76
2022/10/01 02:59:16;;;;;;;8.10;6.00;;;9.10;99.90;;;;;;5125493;27;20053;-76
2022/10/01 03:01:41;;;;;;;8.48;6.07;;;9.10;99.90;;;;;;5117648;27;20035;-77
2022/10/01 03:04:07;;;;;;;9.82;5.85;;;9.10;99.90;;;;;;5121165;27;20168;-76
2022/10/01 03:06:34;;;;;;;7.50;5.97;;;9.20;99.90;;;;;;5105606;27;20023;-76
2022/10/01 03:09:00;;;;;;;8.20;5.80;;;9.20;99.90;;;;;;5120458;27;20058;-76
2022/10/01 03:11:26;;;;;;;10.43;5.82;;;9.20;99.90;;;;;;5115193;27;20057;-76
2022/10/01 03:13:52;;;;;;;8.30;6.13;;;9.20;99.90;;;;;;5128028;27;20052;-76
2022/10/01 03:16:18;;;;;;;9.43;6.03;;;9.20;99.90;;;;;;5119175;27;20392;-76
2022/10/01 03:18:43;;;;;;;8.35;5.80;;;9.20;99.90;;;;;;5122999;27;20031;-76
2022/10/01 03:21:09;;;;;;;8.13;5.55;;;9.30;99.90;;;;;;5125496;27;20457;-76
2022/10/01 03:23:35;;;;;;;8.18;5.72;;;9.30;99.90;;;;;;5107894;27;20558;-76
2022/10/01 03:26:00;;;;;;;9.13;6.18;;;9.30;99.90;;;;;;5132535;27;20084;-77
2022/10/01 03:28:26;;;;;;;11.23;6.32;;;9.40;99.90;;;;;;5119174;27;20514;-76
2022/10/01 03:30:51;;;;;;;8.82;5.68;;;9.40;99.90;;;;;;5121801;27;20105;-76
2022/10/01 03:33:17;;;;;;;6.95;5.40;;;9.50;99.90;;;;;;5117269;27;20039;-76
2022/10/01 03:35:43;;;;;;;7.22;5.53;;;9.50;99.90;;;;;;5119965;27;20028;-76
2022/10/01 03:38:08;;;;;;;10.65;6.13;;;9.50;99.90;;;;;;5119104;27;20019;-77
2022/10/01 03:40:37;;;;;;;10.57;5.20;;;9.50;99.90;;;;;;5110104;27;20059;-76
2022/10/01 03:43:03;;;;;;;11.38;5.65;;;9.60;99.90;;;;;;5120446;27;20411;-76
2022/10/01 03:45:29;;;;;;;8.63;5.25;;;9.60;99.90;;;;;;5123447;27;20373;-76
2022/10/01 03:47:54;;;;;;;6.78;5.55;;;9.60;99.90;;;;;;5116608;27;20571;-76
2022/10/01 03:50:20;;;;;;;10.90;5.20;;;9.70;99.90;;;;;;5117417;27;20086;-76
2022/10/01 03:52:47;;;;;;;5.47;4.85;;;9.70;99.90;;;;;;5118942;27;20042;-76
2022/10/01 03:55:12;;;;;;;10.13;4.95;;;9.70;99.90;;;;;;5117658;27;20028;-77
2022/10/01 03:57:38;;;;;;;7.60;4.80;;;9.70;99.90;;;;;;5123143;27;20090;-76
2022/10/01 04:00:04;;;;;;;8.18;5.20;;;9.70;99.90;;;;;;5108289;27;20069;-76
2022/10/01 04:02:30;;;;;;;9.52;4.82;;;9.80;99.90;;;;;;5110509;27;20052;-77
2022/10/01 04:04:55;;;;;;;8.10;4.78;;;9.80;99.90;;;;;;5113193;27;20182;-76
2022/10/01 04:07:21;;;;;;;7.80;4.80;;;9.80;99.90;;;;;;5117051;27;20027;-76
2022/10/01 04:09:48;;;;;;;8.05;4.78;;;9.90;99.90;;;;;;5129286;27;20034;-76
2022/10/01 04:12:14;;;;;;;10.27;5.10;;;9.80;99.90;;;;;;5135479;27;20057;-76
2022/10/01 04:14:39;;;;;;;10.65;5.30;;;9.80;99.90;;;;;;5128203;27;20026;-76
2022/10/01 04:17:05;;;;;;;7.40;4.57;;;9.90;99.90;;;;;;5118436;27;20066;-76
2022/10/01 04:19:30;;;;;;;8.57;5.32;;;9.90;99.90;;;;;;5128750;27;20520;-76
2022/10/01 04:21:56;;;;;;;9.23;5.70;;;9.90;99.90;;;;;;5119690;27;20011;-76
2022/10/01 04:24:21;;;;;;;15.07;5.90;;;9.80;99.90;;;;;;5127832;27;20287;-76
2022/10/01 04:26:50;;;;;;;14.30;5.70;;;9.80;99.90;;;;;;5128824;27;20039;-76
2022/10/01 04:29:15;;;;;;;6.10;5.13;;;9.80;99.90;;;;;;5097705;27;20023;-76
2022/10/01 04:31:41;;;;;;;9.32;5.50;;;9.70;99.90;;;;;;5123778;27;20086;-76
2022/10/01 04:34:06;;;;;;;9.10;5.68;;;9.80;99.90;;;;;;5130521;27;20474;-76
2022/10/01 04:36:32;;;;;;;9.73;6.40;;;9.70;99.90;;;;;;5132989;27;20314;-75
2022/10/01 04:38:58;;;;;;;9.18;5.93;;;9.70;99.90;;;;;;5117157;27;20345;-76
2022/10/01 04:41:24;;;;;;;11.13;6.50;;;9.70;99.90;;;;;;5130467;27;20015;-75
2022/10/01 04:43:51;;;;;;;9.57;6.60;;;9.60;99.90;;;;;;5125346;27;20075;-76
2022/10/01 04:46:16;;;;;;;8.93;6.18;;;9.60;99.90;;;;;;5121583;27;20483;-75
2022/10/01 04:48:42;;;;;;;10.27;6.60;;;9.60;99.90;;;;;;5126181;27;20030;-75
2022/10/01 04:51:08;;;;;;;9.98;6.32;;;9.50;99.90;;;;;;5120032;27;20917;-76
2022/10/01 04:53:34;;;;;;;8.55;6.50;;;9.60;99.90;;;;;;5119083;27;20509;-75
2022/10/01 04:55:59;;;;;;;7.93;5.97;;;9.50;99.90;;;;;;5124957;27;20081;-75
2022/10/01 04:58:25;;;;;;;9.95;6.97;;;9.50;99.90;;;;;;5124669;27;20042;-76
2022/10/01 05:00:51;;;;;;;9.65;7.15;;;9.50;99.90;;;;;;5119534;27;20015;-75
2022/10/01 05:03:17;;;;;;;10.43;6.95;;;9.50;99.90;;;;;;5112282;27;20011;-75
2022/10/01 05:05:43;;;;;;;11.30;7.00;;;9.40;99.90;;;;;;5117371;27;20471;-75
2022/10/01 05:08:09;;;;;;;11.07;7.50;;;9.40;99.90;;;;;;5124601;27;20035;-75
2022/10/01 05:10:35;;;;;;;8.40;6.38;;;9.40;99.90;;;;;;5121041;27;20386;-75
2022/10/01 05:13:01;;;;;;;10.82;6.95;;;9.40;99.90;;;;;;5118167;27;20410;-75
2022/10/01 05:15:28;;;;;;;8.68;6.45;;;9.30;99.90;;;;;;5111375;27;20130;-75
2022/10/01 05:17:54;;;;;;;10.40;7.32;;;9.40;99.90;;;;;;5111867;27;20024;-76
2022/10/01 05:20:22;;;;;;;11.55;7.53;;;9.40;99.90;;;;;;5119618;27;20059;-75
2022/10/01 05:22:48;;;;;;;12.60;7.80;;;9.40;99.90;;;;;;5116833;27;20468;-75
2022/10/01 05:25:14;;;;;;;11.98;8.07;;;9.30;99.90;;;;;;5118756;27;20059;-75
2022/10/01 05:27:41;;;;;;;11.02;7.60;;;9.30;99.90;;;;;;5127272;27;20023;-75
2022/10/01 05:30:09;;;;;;;9.82;7.45;;;9.30;99.90;;;;;;5123735;27;20029;-74
2022/10/01 05:32:35;;;;;;;11.98;7.75;;;9.20;99.90;;;;;;5124712;27;20258;-75
2022/10/01 05:35:01;;;;;;;12.07;7.82;;;9.20;99.90;;;;;;5119778;27;20034;-76
2022/10/01 05:37:27;;;;;;;15.18;10.68;;;9.20;99.90;;;;;;5121469;27;20023;-76
2022/10/01 05:39:53;;;;;;;13.43;8.60;;;9.20;99.90;;;;;;5123323;27;20119;-75
2022/10/01 05:42:18;;;;;;;11.07;8.38;;;9.20;99.90;;;;;;5117361;27;20472;-75
2022/10/01 05:44:48;;;;;;;10.85;8.38;;;9.20;99.90;;;;;;5113993;27;20088;-75
2022/10/01 05:47:15;;;;;;;10.55;7.95;;;9.20;99.90;;;;;;5115537;27;20023;-75
2022/10/01 05:49:42;;;;;;;8.45;6.75;;;9.20;99.90;;;;;;5111741;27;20040;-75
2022/10/01 05:52:12;;;;;;;10.65;7.22;;;9.20;99.90;;;;;;5117193;27;20028;-75
2022/10/01 05:54:38;;;;;;;27.02;13.52;;;9.20;99.90;;;;;;5118092;27;20080;-74
2022/10/01 05:57:05;;;;;;;19.02;11.27;;;9.20;99.90;;;;;;5104318;27;20027;-74
2022/10/01 05:59:30;;;;;;;12.07;8.98;;;9.20;99.90;;;;;;5122731;27;20019;-75
2022/10/01 06:01:56;;;;;;;17.58;11.90;;;9.20;99.90;;;;;;5105821;27;20033;-74
2022/10/01 06:04:21;;;;;;;13.38;9.40;;;9.20;99.90;;;;;;5115242;27;20032;-75
2022/10/01 06:06:47;;;;;;;10.98;8.65;;;9.20;99.90;;;;;;5119979;27;20522;-75
2022/10/01 06:09:13;;;;;;;12.38;7.47;;;9.20;99.90;;;;;;5122543;27;20031;-75
2022/10/01 06:11:39;;;;;;;8.85;7.70;;;9.20;99.90;;;;;;5117777;27;20023;-75
2022/10/01 06:14:06;;;;;;;8.60;6.78;;;9.20;99.90;;;;;;5096021;27;20374;-76
2022/10/01 06:16:31;;;;;;;8.15;6.60;;;9.20;99.90;;;;;;5095759;27;20031;-76
2022/10/01 06:18:57;;;;;;;9.90;6.45;;;9.20;99.90;;;;;;5107417;27;20016;-74
2022/10/01 06:21:25;;;;;;;9.52;7.00;;;9.20;99.90;;;;;;5111856;27;20383;-75
2022/10/01 06:23:51;;;;;;;12.60;7.15;;;9.20;99.90;;;;;;5113754;27;20061;-76
2022/10/01 06:26:17;;;;;;;7.00;6.00;;;9.20;99.90;;;;;;5112346;27;20023;-76
2022/10/01 06:28:43;;;;;;;9.27;6.20;;;9.20;99.90;;;;;;5119520;27;20402;-75
2022/10/01 06:31:09;;;;;;;8.77;5.80;;;9.20;99.90;;;;;;5114061;27;20034;-75
2022/10/01 06:33:34;;;;;;;10.07;6.68;;;9.20;99.90;;;;;;5118275;27;20039;-77
2022/10/01 06:36:02;;;;;;;9.35;6.70;;;9.20;99.90;;;;;;5114148;27;20468;-77
2022/10/01 06:38:28;;;;;;;10.45;6.45;;;9.20;99.90;;;;;;5121085;27;20494;-77
2022/10/01 06:40:56;;;;;;;7.28;6.15;;;9.20;99.90;;;;;;5123092;27;20030;-77
2022/10/01 06:43:23;;;;;;;13.85;6.68;;;9.20;99.90;;;;;;5113777;27;20051;-77
2022/10/01 06:45:49;;;;;;;14.15;11.85;;;9.20;99.90;;;;;;5115920;27;20121;-77
2022/10/01 06:48:16;;;;;;;8.93;7.10;;;9.30;99.90;;;;;;5111109;27;20199;-77
2022/10/01 06:50:43;;;;;;;6.72;6.03;;;9.30;99.90;;;;;;5127162;27;20019;-77
2022/10/01 06:53:09;;;;;;;8.00;6.80;;;9.30;99.90;;;;;;5121996;27;20460;-77
2022/10/01 06:55:36;;;;;;;7.78;6.60;;;9.30;99.90;;;;;;5125265;27;20023;-77
2022/10/01 06:58:06;;;;;;;6.68;5.28;;;9.30;99.90;;;;;;5121309;27;20035;-77
2022/10/01 07:00:34;;;;;;;8.35;6.60;;;9.30;99.90;;;;;;5110462;27;20098;-77
2022/10/01 07:03:00;;;;;;;7.88;6.00;;;9.30;99.90;;;;;;5124476;27;20110;-77
2022/10/01 07:05:26;;;;;;;8.70;6.25;;;9.30;99.90;;;;;;5119383;27;20106;-77
2022/10/01 07:07:52;;;;;;;6.43;5.60;;;9.30;99.90;;;;;;5109511;27;20134;-77
2022/10/01 07:10:20;;;;;;;8.20;5.05;;;9.30;99.90;;;;;;5107520;27;20594;-77
2022/10/01 07:12:49;;;;;;;6.57;5.20;;;9.30;99.90;;;;;;5117907;27;20022;-77
2022/10/01 07:15:16;;;;;;;6.65;5.65;;;;;;;;;;5115069;27;20627;-77
2022/10/01 07:17:48;;;;;;;6.22;5.15;;;9.40;99.90;;;;;;5108676;27;20780;-74
2022/10/01 07:20:16;;;;;;;5.05;4.55;;;9.40;99.90;;;;;;5114505;27;20106;-73
2022/10/01 07:22:42;;;;;;;4.40;4.00;;;9.40;99.90;;;;;;5118974;27;20387;-74
2022/10/01 07:25:09;;;;;;;4.78;4.18;;;9.40;99.90;;;;;;5113242;27;20031;-74
2022/10/01 07:27:35;;;;;;;6.85;4.18;;;9.40;99.90;;;;;;5111948;27;20035;-74
2022/10/01 07:30:00;;;;;;;4.07;3.63;;;9.40;99.90;;;;;;5121816;27;20110;-75
2022/10/01 07:32:26;;;;;;;5.68;4.47;;;9.50;99.90;;;;;;5115331;27;20555;-76
2022/10/01 07:34:52;;;;;;;5.38;4.03;;;9.50;99.90;;;;;;5119517;27;20027;-74
2022/10/01 07:37:17;;;;;;;5.60;4.07;;;9.50;99.90;;;;;;5110871;27;20433;-74
2022/10/01 07:39:43;;;;;;;6.20;5.60;;;9.50;99.90;;;;;;5121739;27;20084;-74
2022/10/01 07:42:09;;;;;;;5.50;4.55;;;9.50;99.90;;;;;;5130190;27;20130;-74
2022/10/01 07:44:34;;;;;;;6.80;3.85;;;9.50;99.90;;;;;;5109270;27;20046;-74
2022/10/01 07:47:00;;;;;;;3.65;3.30;;;9.60;99.90;;;;;;5110559;27;20472;-75
2022/10/01 07:49:26;;;;;;;4.03;3.42;;;9.60;99.90;;;;;;5114752;27;20099;-75
2022/10/01 07:51:53;;;;;;;4.55;3.08;;;9.60;99.90;;;;;;5118456;27;20038;-75
2022/10/01 07:54:22;;;;;;;3.15;2.85;;;9.60;99.90;;;;;;5121497;27;20429;-75
2022/10/01 07:56:51;;;;;;;5.32;3.42;;;9.60;99.90;;;;;;5121751;27;20565;-75
2022/10/01 07:59:17;;;;;;;4.47;3.40;;;9.60;99.90;;;;;;5120920;27;20073;-75
2022/10/01 08:01:46;;;;;;;3.97;3.58;;;9.60;99.90;;;;;;5123398;27;20047;-76
2022/10/01 08:06:56;;;;;;;3.08;2.70;;;9.60;99.90;;;;;;5116920;27;20062;-77
2022/10/01 08:09:22;;;;;;;2.33;2.13;;;9.60;99.90;;;;;;5118967;27;20114;-77
2022/10/01 08:11:48;;;;;;;2.92;2.45;;;9.70;99.90;;;;;;5124493;27;20117;-77
2022/10/01 08:14:14;;;;;;;5.00;3.17;;;9.70;99.90;;;;;;5119466;27;20118;-77
2022/10/01 08:16:40;;;;;;;3.30;2.50;;;9.70;99.90;;;;;;5134890;27;20449;-76
2022/10/01 08:19:06;;;;;;;3.90;3.45;;;9.70;99.90;;;;;;5124565;27;20034;-77
2022/10/01 08:21:34;;;;;;;3.78;3.38;;;9.70;99.90;;;;;;5115130;27;20015;-77
2022/10/01 08:24:01;;;;;;;6.18;3.95;;;9.70;99.90;;;;;;5132033;27;20505;-77
2022/10/01 08:26:27;;;;;;;3.67;3.03;;;9.70;99.90;;;;;;5133757;27;20067;-77
2022/10/01 08:28:52;;;;;;;4.28;3.20;;;9.80;99.90;;;;;;5128961;27;20117;-77
2022/10/01 08:31:18;;;;;;;3.42;3.13;;;9.70;99.90;;;;;;5127226;27;20456;-77
2022/10/01 08:33:44;;;;;;;5.43;2.90;;;9.80;99.90;;;;;;5125882;27;20036;-76
2022/10/01 08:36:09;;;;;;;4.85;4.35;;;9.80;99.90;;;;;;5141529;27;20043;-76
2022/10/01 08:38:36;;;;;;;5.40;4.15;;;9.80;99.90;;;;;;5123253;27;20027;-77
2022/10/01 08:41:14;;;;;;;4.28;3.88;;;9.80;99.90;;;;;;5129053;27;20090;-81
2022/10/01 08:43:40;;;;;;;7.72;6.63;;;9.80;99.90;;;;;;5109312;27;20073;-80
2022/10/01 08:46:17;;;;;;;5.80;4.47;;;9.80;99.90;;;;;;5125562;27;20628;-81
2022/10/01 08:48:55;;;;;;;6.38;5.10;;;9.80;99.90;;;;;;5118065;27;20039;-80
2022/10/01 08:51:48;;;;;;;5.65;4.90;;;9.80;99.90;;;;;;5118053;27;20020;-81
2022/10/01 08:55:01;;;;;;;8.15;5.72;;;9.80;99.90;;;;;;5107534;27;20093;-80
2022/10/01 08:57:33;;;;;;;5.75;4.40;;;9.80;99.90;;;;;;5111005;27;20107;-80
2022/10/01 09:00:03;;;;;;;9.60;4.15;;;9.80;99.90;;;;;;5108531;28;20048;-81
2022/10/01 09:02:32;;;;;;;5.28;3.83;;;9.80;99.90;;;;;;5114473;27;20023;-77
2022/10/01 09:05:15;;;;;;;3.72;3.33;;;9.80;99.90;;;;;;5125575;27;20058;-77
2022/10/01 09:07:56;;;;;;;3.67;3.30;;;9.80;99.90;;;;;;5132503;27;20474;-78
2022/10/01 09:10:39;;;;;;;3.42;3.13;;;9.80;99.90;;;;;;5119081;27;20173;-77
2022/10/01 09:13:17;;;;;;;2.83;2.63;;;9.90;99.90;;;;;;5127861;27;20461;-77
2022/10/01 09:15:45;;;;;;;3.75;3.25;;;10.00;99.90;;;;;;4384928;27;10001014;-80
2022/10/01 09:18:30;;;;;;;6.55;2.58;;;10.00;99.90;;;;;;5059977;28;20020;-80
2022/10/01 09:20:57;;;;;;;4.40;3.53;;;10.00;99.90;;;;;;5064409;28;20036;-80
2022/10/01 09:23:30;;;;;;;4.85;4.40;;;10.10;99.90;;;;;;5070285;28;20043;-80
2022/10/01 09:25:58;;;;;;;5.93;3.67;;;10.10;99.90;;;;;;5065799;28;20722;-79
2022/10/01 09:28:32;;;;;;;3.33;3.03;;;10.10;99.90;;;;;;5061922;28;20124;-79
2022/10/01 09:31:17;;;;;;;3.63;3.25;;;10.10;99.90;;;;;;5066077;28;20033;-78
2022/10/01 09:33:56;;;;;;;5.13;4.00;;;10.20;99.90;;;;;;5066956;28;20676;-77
2022/10/01 09:36:22;;;;;;;6.55;5.60;;;10.20;99.90;;;;;;5061378;28;20028;-74
2022/10/01 09:39:17;;;;;;;5.20;3.65;;;10.20;99.90;;;;;;5057434;28;20728;-78
2022/10/01 09:41:45;;;;;;;4.30;3.70;;;10.20;99.90;;;;;;5064636;28;20025;-76
2022/10/01 09:44:22;;;;;;;3.00;2.70;;;10.20;99.90;;;;;;5069819;28;20406;-76
2022/10/01 09:46:48;;;;;;;4.18;3.08;;;10.20;99.90;;;;;;5057779;28;20036;-76
2022/10/01 09:49:26;;;;;;;3.30;3.00;;;10.20;99.90;;;;;;5103452;27;20199;-77
2022/10/01 09:52:06;;;;;;;3.92;2.95;;;10.30;99.90;;;;;;5118106;27;20045;-77
2022/10/01 09:54:45;;;;;;;3.35;3.05;;;10.30;99.90;;;;;;5102247;27;20050;-77
2022/10/01 09:57:45;;;;;;;4.28;2.88;;;10.30;99.90;;;;;;5108926;27;20031;-76
2022/10/01 10:00:17;;;;;;;4.30;3.38;;;10.30;99.90;;;;;;5064167;28;20027;-77
2022/10/01 10:02:45;;;;;;;3.08;2.78;;;10.30;99.90;;;;;;5116374;27;20428;-77
2022/10/01 10:05:18;;;;;;;3.63;2.60;;;10.40;99.90;;;;;;5117314;27;20122;-77
2022/10/01 10:07:54;;;;;;;3.30;2.15;;;10.40;99.90;;;;;;5097678;27;20177;-77
2022/10/01 10:10:47;;;;;;;4.72;2.47;;;10.40;99.90;;;;;;5116642;27;20146;-77
2022/10/01 10:13:42;;;;;;;2.22;2.05;;;10.40;99.90;;;;;;5123636;27;20038;-77
2022/10/01 10:16:23;;;;;;;3.17;2.10;;;10.50;99.90;;;;;;5097356;27;20393;-77
2022/10/01 10:18:52;;;;;;;3.88;2.10;;;10.50;99.90;;;;;;5117245;27;20109;-77
2022/10/01 10:21:26;;;;;;;2.65;2.45;;;10.50;99.90;;;;;;5125144;27;20032;-76
2022/10/01 10:23:55;;;;;;;2.33;2.05;;;10.50;99.90;;;;;;5121584;27;20279;-75
2022/10/01 10:26:30;;;;;;;4.03;2.45;;;10.50;99.90;;;;;;5112695;27;20040;-74
2022/10/01 10:28:57;;;;;;;5.80;2.15;;;10.50;99.90;;;;;;5122507;27;20393;-75
2022/10/01 10:31:26;;;;;;;2.28;2.08;;;10.50;99.90;;;;;;5136662;27;20039;-75
2022/10/01 10:34:17;;;;;;;4.18;2.78;;;10.50;99.90;;;;;;5122996;27;20038;-75
2022/10/01 10:36:44;;;;;;;2.97;2.55;;;10.60;99.90;;;;;;5117811;27;20034;-76
2022/10/01 10:39:32;;;;;;;4.47;3.40;;;10.60;99.90;;;;;;5114219;27;20027;-75
2022/10/01 10:41:59;;;;;;;3.58;3.00;;;10.60;99.90;;;;;;5118453;27;20670;-76
2022/10/01 10:44:30;;;;;;;2.67;2.47;;;10.60;99.90;;;;;;5110048;27;20039;-74
2022/10/01 10:46:59;;;;;;;3.28;2.60;;;10.60;99.90;;;;;;5126363;27;20427;-75
2022/10/01 10:49:28;;;;;;;2.40;2.20;;;;;;;;;;5110480;27;20463;-76
2022/10/01 10:51:55;;;;;;;2.50;2.30;;;10.70;99.90;;;;;;5116562;27;20039;-75
2022/10/01 10:54:30;;;;;;;2.95;2.33;;;10.60;99.90;;;;;;5115949;27;20085;-75
2022/10/01 10:57:02;;;;;;;3.40;2.53;;;10.70;99.90;;;;;;5116279;27;20026;-76
2022/10/01 10:59:30;;;;;;;4.90;2.60;;;10.80;99.90;;;;;;5115842;27;20019;-76
2022/10/01 11:01:56;;;;;;;2.63;2.42;;;10.90;99.90;;;;;;5113985;27;20110;-76
2022/10/01 11:04:38;;;;;;;4.28;3.53;;;11.00;99.90;;;;;;5118471;27;20482;-76
2022/10/01 11:07:04;;;;;;;3.30;3.05;;;11.10;99.90;;;;;;5119841;27;20899;-76
2022/10/01 11:10:01;;;;;;;3.60;3.10;;;11.30;99.90;;;;;;5115338;27;20036;-76
2022/10/01 11:12:38;;;;;;;2.85;2.65;;;11.50;99.90;;;;;;5109026;27;20032;-76
2022/10/01 11:15:34;;;;;;;2.70;2.50;;;11.70;99.90;;;;;;5119291;27;20083;-76
2022/10/01 11:18:24;;;;;;;3.17;2.88;;;11.80;99.90;;;;;;5114739;27;20041;-76
2022/10/01 11:21:11;;;;;;;3.97;3.28;;;12.10;99.90;;;;;;5125206;27;20023;-76
2022/10/01 11:24:15;;;;;;;7.10;4.57;;;12.30;99.90;;;;;;5122403;27;20042;-75
2022/10/01 11:26:52;;;;;;;6.05;4.30;;;12.30;99.90;;;;;;5017954;28;20566;-76
2022/10/01 11:29:49;;;;;;;5.53;4.78;;;12.30;99.90;;;;;;5014013;28;20468;-76
2022/10/01 11:32:51;;;;;;;3.90;2.80;;;12.20;99.90;;;;;;5081955;27;20032;-75
2022/10/01 11:35:59;;;;;;;3.55;3.10;;;12.20;99.90;;;;;;5117061;27;20433;-76
2022/10/01 11:38:43;;;;;;;4.15;2.80;;;12.30;99.90;;;;;;5109131;27;20023;-75
2022/10/01 11:41:21;;;;;;;3.42;2.30;;;12.20;99.90;;;;;;5120956;27;20095;-75
2022/10/01 11:44:03;;;;;;;3.17;2.88;;;12.20;99.90;;;;;;5118882;27;20051;-76
2022/10/01 11:46:41;;;;;;;2.50;2.10;;;12.20;99.90;;;;;;5097107;27;20031;-76
2022/10/01 11:49:39;;;;;;;2.67;2.20;;;12.20;99.90;;;;;;5120468;27;20026;-76
2022/10/01 11:52:23;;;;;;;3.82;2.50;;;12.10;99.90;;;;;;4648910;27;10002870;-74
2022/10/01 11:58:49;;;;;;;32.75;20.77;;;12.10;99.90;;;;;;5069909;28;20126;-73
2022/10/01 12:00:37;;;;;;;17.15;14.32;;;12.10;99.90;;;;;;5069340;28;20317;-76
2022/10/01 12:03:08;;;;;;;8.00;5.95;;;12.00;99.90;;;;;;5064045;28;20031;-76
2022/10/01 12:05:34;;;;;;;4.75;4.05;;;12.00;99.90;;;;;;5062166;28;20570;-76
2022/10/01 12:08:19;;;;;;;4.90;4.28;;;12.00;99.90;;;;;;5061920;28;20028;-73
2022/10/01 12:11:00;;;;;;;4.78;3.88;;;11.90;99.90;;;;;;5077812;28;20031;-75
2022/10/01 12:13:43;;;;;;;4.00;2.95;;;11.90;99.90;;;;;;5074041;28;20028;-73
2022/10/01 12:16:19;;;;;;;4.18;2.60;;;11.90;99.90;;;;;;5065148;28;20036;-74
2022/10/01 12:18:57;;;;;;;3.60;2.95;;;12.00;99.90;;;;;;5071344;28;20025;-75
2022/10/01 12:21:37;;;;;;;3.00;2.00;;;12.00;99.90;;;;;;5077249;28;20081;-75
2022/10/01 12:24:25;;;;;;;3.35;1.90;;;11.90;99.90;;;;;;5070739;28;21046;-74
2022/10/01 12:26:53;;;;;;;3.72;2.30;;;12.00;99.90;;;;;;5088202;27;20031;-74
2022/10/01 12:29:19;;;;;;;3.42;2.53;;;11.90;99.90;;;;;;5116379;27;20035;-73
2022/10/01 12:31:44;;;;;;;19.73;12.43;;;12.00;99.90;;;;;;5118478;27;20034;-73
2022/10/01 12:34:47;;;;;;;15.68;10.00;;;12.00;99.90;;;;;;5130508;27;20108;-73
2022/10/01 12:37:36;;;;;;;5.00;3.90;;;12.00;99.90;;;;;;5111632;27;20110;-72
2022/10/01 12:40:25;;;;;;;5.88;4.28;;;12.10;99.90;;;;;;5102371;27;20035;-77
2022/10/01 12:42:56;;;;;;;3.58;2.53;;;12.10;99.90;;;;;;5104260;27;20039;-75
2022/10/01 12:45:50;;;;;;;5.35;2.75;;;12.20;99.90;;;;;;5124765;27;20034;-74
2022/10/01 12:48:51;;;;;;;4.38;3.08;;;12.20;99.90;;;;;;5120752;27;20125;-75
2022/10/01 12:51:57;;;;;;;5.47;3.00;;;12.30;99.90;;;;;;5115517;27;20079;-76
2022/10/01 12:54:31;;;;;;;4.53;3.60;;;12.50;99.90;;;;;;5108904;27;20239;-75
2022/10/01 12:57:35;;;;;;;2.40;2.20;;;12.60;99.90;;;;;;5119909;27;20212;-78
2022/10/01 13:00:14;;;;;;;1.55;1.45;;;12.70;99.90;;;;;;5045456;28;20043;-76
2022/10/01 13:03:17;;;;;;;3.15;1.73;;;12.80;99.90;;;;;;5110285;27;20103;-76
2022/10/01 13:05:53;;;;;;;1.70;1.58;;;12.90;99.90;;;;;;5107830;27;20157;-77
2022/10/01 13:08:45;;;;;;;1.50;1.40;;;12.90;99.90;;;;;;5102432;27;20044;-76
2022/10/01 13:11:19;;;;;;;3.35;1.92;;;12.80;99.90;;;;;;5108080;27;20102;-76
2022/10/01 13:13:49;;;;;;;3.17;2.63;;;12.80;99.90;;;;;;5129298;27;20038;-77
2022/10/01 13:16:14;;;;;;;1.80;1.70;;;12.80;99.90;;;;;;5121018;27;20115;-76
2022/10/01 13:19:07;;;;;;;2.38;1.38;;;12.80;99.90;;;;;;5105339;27;20110;-77
2022/10/01 13:21:55;;;;;;;3.22;1.45;;;13.00;99.90;;;;;;5114825;27;20055;-77
2022/10/01 13:24:48;;;;;;;2.13;1.92;;;13.30;99.90;;;;;;5103325;27;20027;-77